Scroll To Top

Nearby METAR Reports

KBAX - Bad Axe, Michigan, USA
Distance from station: ESE 22mi, 35km
Updated: Sat, 13-Apr-2024 5:55pm EDT
Clear
Clear
 Wind from W
Wind: W 18 mph, 30 km/h, Gust: 23 mph, 37 km/h
Temperature: 59°F, 15°C
Dew Point: 27°F, -3°C
Humidity: 29%
Barometer: 29.89 inHg, 1012.2 hPa
Clouds: Clear
Visibility: 10 miles, 16 km
2024/04/13 21:55 KBAX 132155Z AUTO 28016G20KT 10SM CLR 15/M03 A2989 RMK AO2 T01451031
KFNT - Flint, Michigan, USA
Distance from station: SSW 68mi, 109km
Updated: Sat, 13-Apr-2024 5:53pm EDT
Clear
Clear
 Wind from W
Wind: W 14 mph, 22 km/h
Temperature: 61°F, 16°C
Dew Point: 34°F, 1°C
Humidity: 36%
Barometer: 29.93 inHg, 1013.5 hPa
Clouds: Clear
Visibility: 10 miles, 16 km
2024/04/13 21:53 KFNT 132153Z 27012KT 10SM CLR 16/01 A2993 RMK AO2 SLP138 T01560006
 
KMBS - Saginaw, Michigan, USA
Distance from station: SW 44mi, 70km
Updated: Sat, 13-Apr-2024 5:53pm EDT
Clear
Clear
 Wind from W
Wind: W 14 mph, 22 km/h
Temperature: 63°F, 17°C
Dew Point: 28°F, -2°C
Humidity: 27%
Barometer: 29.90 inHg, 1012.5 hPa
Clouds: Clear
Visibility: 10 miles, 16 km
2024/04/13 21:53 KMBS 132153Z 26012KT 10SM CLR 17/M02 A2990 RMK AO2 SLP128 T01671022
KDTW - Detroit/Wayne, Michigan, USA
Distance from station: SSE 117mi, 188km
Updated: Sat, 13-Apr-2024 5:53pm EDT
Clear
Clear
 Wind from W
Wind: W 16 mph, 26 km/h, Gust: 23 mph, 37 km/h
Temperature: 63°F, 17°C
Dew Point: 30°F, -1°C
Humidity: 30%
Barometer: 29.94 inHg, 1013.9 hPa
Clouds: Clear
Visibility: 10 miles, 16 km
2024/04/13 21:53 KDTW 132153Z 28014G20KT 10SM CLR 17/M01 A2994 RMK AO2 SLP141 T01721011